KTBN/TBN METAR and TAF weather

Enter ICAO airport designator
Station Type Date Time Source
KTBN METAR 2021/10/20 05:56 UTC NOAA

KTBN 200556Z AUTO 18004KT 10SM CLR 12/08 A3007 RMK AO2 SLP181 T01240081 10160 20116 402280063 52004


Station Type Date Time Source
KTBN Decoded METAR 2021/10/20 05:56 UTC NOAA

Fort Leonard Wood, MO, United States (KTBN) 37-44N 092-08W
Oct 20, 2021 - 01:56 AM EDT / 2021.10.20 0556 UTC
Wind: from the S (180 degrees) at 5 MPH (4 KT):0
Visibility: 10 mile(s):0
Sky conditions: clear
Temperature: 54.3 F (12.4 C)
Dew Point: 46.6 F (8.1 C)
Relative Humidity: 75%
Pressure (altimeter): 30.07 in. Hg (1018 hPa)
Pressure tendency: 0.01 inches (0.4 hPa) higher than three hours ago
ob: KTBN 200556Z AUTO 18004KT 10SM CLR 12/08 A3007 RMK AO2 SLP181 T01240081 10160 20116 402280063 52004
cycle: 6

Station Type Date Time Source
KTBN TAF UTC NOAA

Error!

Example: see airport list